createdAt,value
2018-07-16T00:00:45.774Z,94578.98
2018-07-16T00:03:15.559Z,94580.91
2018-07-16T00:05:45.237Z,94583.07
2018-07-16T00:08:15.255Z,94592.63
2018-07-16T00:10:45.212Z,94592.66
2018-07-16T00:13:14.929Z,94587.11
2018-07-16T00:15:44.599Z,94591.73
2018-07-16T00:18:14.086Z,94590.95
2018-07-16T00:20:43.619Z,94601.10
2018-07-16T00:23:13.162Z,94608.59
2018-07-16T00:25:42.766Z,94603.23
2018-07-16T00:28:12.666Z,94605.44
2018-07-16T00:30:42.330Z,94603.70
2018-07-16T00:33:12.094Z,94605.95
2018-07-16T00:35:41.858Z,94600.52
2018-07-16T00:38:11.380Z,94596.83
2018-07-16T00:40:41.378Z,94603.67
2018-07-16T00:43:11.103Z,94596.43
2018-07-16T00:45:41.017Z,94593.53
2018-07-16T00:48:10.940Z,94594.20
2018-07-16T00:50:40.581Z,94608.97
2018-07-16T00:53:10.361Z,94607.64
2018-07-16T00:55:40.168Z,94605.70
2018-07-16T00:58:09.881Z,94599.03
2018-07-16T01:00:39.619Z,94607.41
2018-07-16T01:03:09.516Z,94618.84
2018-07-16T01:05:39.400Z,94621.19
2018-07-16T01:08:09.221Z,94622.13
2018-07-16T01:10:38.779Z,94613.19
2018-07-16T01:13:08.623Z,94615.30
2018-07-16T01:15:38.476Z,94615.64
2018-07-16T01:18:08.254Z,94612.73
2018-07-16T01:20:37.831Z,94614.39
2018-07-16T01:23:07.497Z,94620.45
2018-07-16T01:25:37.467Z,94622.42
2018-07-16T01:28:07.413Z,94610.55
2018-07-16T01:30:37.089Z,94621.48
2018-07-16T01:33:06.968Z,94617.92
2018-07-16T01:35:36.704Z,94618.11
2018-07-16T01:38:06.342Z,94617.47
2018-07-16T01:40:36.062Z,94623.37
2018-07-16T01:43:05.982Z,94620.97
2018-07-16T01:45:35.618Z,94622.94
2018-07-16T01:48:05.459Z,94627.34
2018-07-16T01:50:35.010Z,94626.59
2018-07-16T01:53:04.697Z,94621.61
2018-07-16T01:55:34.353Z,94620.97
2018-07-16T01:58:04.242Z,94622.05
2018-07-16T02:00:35.462Z,94622.98
2018-07-16T02:03:05.114Z,94620.83
2018-07-16T02:05:34.846Z,94618.78
2018-07-16T02:08:04.602Z,94626.71
2018-07-16T02:10:34.370Z,94625.53
2018-07-16T02:13:04.060Z,94614.22
2018-07-16T02:15:33.923Z,94619.96
2018-07-16T02:18:03.623Z,94622.36
2018-07-16T02:20:33.178Z,94617.39
2018-07-16T02:23:03.188Z,94618.19
2018-07-16T02:25:32.960Z,94625.16
2018-07-16T02:28:02.679Z,94632.37
2018-07-16T02:30:32.532Z,94630.20
2018-07-16T02:33:02.206Z,94635.64
2018-07-16T02:35:31.873Z,94635.73
2018-07-16T02:38:01.683Z,94632.12
2018-07-16T02:40:31.341Z,94630.30
2018-07-16T02:43:01.209Z,94622.92
2018-07-16T02:45:30.767Z,94615.41
2018-07-16T02:48:00.566Z,94618.77
2018-07-16T02:50:30.199Z,94630.83
2018-07-16T02:52:59.842Z,94619.87
2018-07-16T02:55:29.698Z,94624.62
2018-07-16T02:57:59.446Z,94625.43
2018-07-16T03:00:29.167Z,94624.17
2018-07-16T03:02:59.156Z,94627.34
2018-07-16T03:05:28.931Z,94633.81
2018-07-16T03:07:58.567Z,94629.57
2018-07-16T03:10:28.342Z,94630.11
2018-07-16T03:12:58.207Z,94619.96
2018-07-16T03:15:27.754Z,94627.52
2018-07-16T03:17:57.497Z,94625.86
2018-07-16T03:20:26.884Z,94619.17
2018-07-16T03:22:56.775Z,94627.58
2018-07-16T03:25:26.381Z,94624.20
2018-07-16T03:27:56.123Z,94631.09
2018-07-16T03:30:26.078Z,94633.81
2018-07-16T03:32:55.885Z,94635.61
2018-07-16T03:35:25.699Z,94632.32
2018-07-16T03:37:55.436Z,94636.34
2018-07-16T03:40:25.120Z,94634.66
2018-07-16T03:42:54.879Z,94637.69
2018-07-16T03:45:24.674Z,94634.50
2018-07-16T03:47:54.416Z,94627.94
2018-07-16T03:50:24.003Z,94629.54
2018-07-16T03:52:53.802Z,94633.75
2018-07-16T03:55:23.796Z,94625.70
2018-07-16T03:57:53.735Z,94630.42
2018-07-16T04:00:23.537Z,94630.92
2018-07-16T04:02:53.208Z,94620.22
2018-07-16T04:05:22.938Z,94621.30
2018-07-16T04:07:52.671Z,94618.81
2018-07-16T04:10:22.657Z,94624.61
2018-07-16T04:12:52.602Z,94627.30
2018-07-16T04:15:22.109Z,94614.31
2018-07-16T04:17:51.659Z,94610.99
2018-07-16T04:20:21.308Z,94606.30
2018-07-16T04:22:50.982Z,94616.53
2018-07-16T04:25:20.958Z,94612.98
2018-07-16T04:27:50.746Z,94610.88
2018-07-16T04:30:20.238Z,94604.09
2018-07-16T04:32:49.909Z,94604.73
2018-07-16T04:35:19.718Z,94610.23
2018-07-16T04:37:50.071Z,94613.36
2018-07-16T04:40:20.210Z,94604.37
2018-07-16T04:42:50.281Z,94612.69
2018-07-16T04:45:19.980Z,94605.95
2018-07-16T04:47:49.587Z,94603.67
2018-07-16T04:50:19.130Z,94607.36
2018-07-16T04:52:48.991Z,94603.02
2018-07-16T04:55:18.757Z,94611.50
2018-07-16T04:57:48.797Z,94607.93
2018-07-16T05:00:18.686Z,94607.89
2018-07-16T05:02:48.476Z,94605.00
2018-07-16T05:05:18.108Z,94597.38
2018-07-16T05:07:48.032Z,94600.23
2018-07-16T05:10:17.831Z,94602.05
2018-07-16T05:12:47.602Z,94599.28
2018-07-16T05:15:17.295Z,94607.32
2018-07-16T05:17:46.791Z,94598.78
2018-07-16T05:20:16.456Z,94599.53
2018-07-16T05:22:46.195Z,94589.05
2018-07-16T05:25:16.162Z,94585.89
2018-07-16T05:27:45.900Z,94588.06
2018-07-16T05:30:15.666Z,94593.04
2018-07-16T05:32:45.674Z,94585.97
2018-07-16T05:35:15.426Z,94582.34
2018-07-16T05:37:45.414Z,94585.97
2018-07-16T05:40:15.242Z,94587.67
2018-07-16T05:42:44.897Z,94597.20
2018-07-16T05:45:14.647Z,94598.55
2018-07-16T05:47:44.234Z,94591.15
2018-07-16T05:50:13.927Z,94584.44
2018-07-16T05:52:43.670Z,94591.14
2018-07-16T05:55:13.421Z,94602.45
2018-07-16T05:57:43.240Z,94597.10
2018-07-16T06:00:13.054Z,94611.25
2018-07-16T06:02:42.751Z,94595.38
2018-07-16T06:05:12.541Z,94590.80
2018-07-16T06:07:42.113Z,94590.27
2018-07-16T06:10:11.749Z,94594.20
2018-07-16T06:12:41.437Z,94586.14
2018-07-16T06:15:11.305Z,94593.91
2018-07-16T06:17:41.375Z,94593.43
2018-07-16T06:20:12.409Z,94586.17
2018-07-16T06:22:42.448Z,94609.98
2018-07-16T06:25:12.004Z,94593.74
2018-07-16T06:27:41.602Z,94592.48
2018-07-16T06:30:11.316Z,94586.39
2018-07-16T06:32:41.268Z,94597.27
2018-07-16T06:35:11.315Z,94584.50
2018-07-16T06:37:41.175Z,94591.93
2018-07-16T06:40:11.076Z,94590.30
2018-07-16T06:42:40.731Z,94584.28
2018-07-16T06:45:10.657Z,94583.56
2018-07-16T06:47:40.509Z,94586.22
2018-07-16T06:50:10.273Z,94582.47
2018-07-16T06:52:40.159Z,94581.98
2018-07-16T06:55:10.147Z,94580.91
2018-07-16T06:57:39.594Z,94582.23
2018-07-16T07:00:09.162Z,94580.59
2018-07-16T07:02:38.798Z,94575.11
2018-07-16T07:05:08.581Z,94571.67
2018-07-16T07:07:38.310Z,94572.41
2018-07-16T07:10:08.461Z,94565.72
2018-07-16T07:12:38.395Z,94564.27
2018-07-16T07:15:08.141Z,94564.94
2018-07-16T07:17:38.177Z,94563.28
2018-07-16T07:20:09.039Z,94563.52
2018-07-16T07:22:39.296Z,94558.61
2018-07-16T07:25:10.053Z,94555.62
2018-07-16T07:27:40.080Z,94563.73
2018-07-16T07:30:10.593Z,94570.38
2018-07-16T07:32:40.129Z,94557.11
2018-07-16T07:35:09.746Z,94575.20
2018-07-16T07:37:39.421Z,94567.92
2018-07-16T07:40:09.475Z,94571.23
2018-07-16T07:42:39.941Z,94571.46
2018-07-16T07:45:09.755Z,94564.75
2018-07-16T07:47:39.564Z,94574.33
2018-07-16T07:50:10.065Z,94578.45
2018-07-16T07:52:40.006Z,94573.23
2018-07-16T07:55:10.063Z,94572.32
2018-07-16T07:57:39.431Z,94575.90
2018-07-16T08:00:09.550Z,94577.23
2018-07-16T08:02:39.461Z,94573.98
2018-07-16T08:05:09.146Z,94577.61
2018-07-16T08:07:38.735Z,94579.48
2018-07-16T08:10:08.351Z,94573.84
2018-07-16T08:12:37.968Z,94575.05
2018-07-16T08:15:08.786Z,94578.73
2018-07-16T08:17:39.490Z,94571.42
2018-07-16T08:20:10.527Z,94576.30
2018-07-16T08:22:40.800Z,94570.34
2018-07-16T08:25:10.289Z,94564.25
2018-07-16T08:27:40.935Z,94559.28
2018-07-16T08:30:11.390Z,94588.34
2018-07-16T08:32:42.062Z,94580.02
2018-07-16T08:35:11.770Z,94569.20
2018-07-16T08:37:41.841Z,94568.48
2018-07-16T08:40:11.469Z,94566.11
2018-07-16T08:42:41.074Z,94569.66
2018-07-16T08:45:10.782Z,94314.47
2018-07-16T08:47:41.431Z,94566.14
2018-07-16T08:50:11.544Z,94564.89
2018-07-16T08:52:41.615Z,94571.11
2018-07-16T08:55:12.543Z,94555.73
2018-07-16T08:57:42.105Z,94570.91
2018-07-16T09:00:11.869Z,94566.24
2018-07-16T09:02:41.743Z,94588.16
2018-07-16T09:05:11.301Z,94576.91
2018-07-16T09:07:41.127Z,94574.80
2018-07-16T09:10:11.329Z,94574.37
2018-07-16T09:12:40.841Z,94589.16
2018-07-16T09:15:10.632Z,94575.09
2018-07-16T09:17:40.098Z,94591.55
2018-07-16T09:20:10.123Z,94587.68
2018-07-16T09:22:40.827Z,94586.58
2018-07-16T09:25:11.011Z,94582.05
2018-07-16T09:27:40.973Z,94573.71
2018-07-16T09:30:11.015Z,94580.70
2018-07-16T09:32:40.981Z,94581.17
2018-07-16T09:35:11.187Z,94571.52
2018-07-16T09:37:40.982Z,94573.48
2018-07-16T09:40:10.938Z,94579.08
2018-07-16T09:42:40.572Z,94596.78
2018-07-16T09:45:10.258Z,94578.08
2018-07-16T09:47:39.848Z,94581.98
2018-07-16T09:50:09.956Z,94570.29
2018-07-16T09:52:39.678Z,94578.16
2018-07-16T09:55:10.148Z,94581.75
2018-07-16T09:57:40.693Z,94569.26
2018-07-16T10:00:10.661Z,94555.10
2018-07-16T10:02:40.679Z,94555.67
2018-07-16T10:05:10.757Z,94548.66
2018-07-16T10:07:41.031Z,94572.47
2018-07-16T10:10:10.983Z,94556.80
2018-07-16T10:12:41.350Z,94547.62
2018-07-16T10:15:12.079Z,94535.94
2018-07-16T10:17:42.808Z,94525.00
2018-07-16T10:20:13.384Z,94530.80
2018-07-16T10:22:43.249Z,94527.31
2018-07-16T10:25:12.831Z,94522.14
2018-07-16T10:27:43.590Z,94525.09
2018-07-16T10:30:13.574Z,94500.75
2018-07-16T10:32:43.973Z,94535.94
2018-07-16T10:35:13.837Z,94531.19
2018-07-16T10:37:43.350Z,94524.48
2018-07-16T10:40:13.135Z,94530.36
2018-07-16T10:42:42.634Z,94539.57
2018-07-16T10:45:12.552Z,94537.29
2018-07-16T10:47:42.549Z,94533.75
2018-07-16T10:50:12.640Z,94532.20
2018-07-16T10:52:42.159Z,94536.44
2018-07-16T10:55:12.042Z,94542.08
2018-07-16T10:57:41.722Z,94531.62
2018-07-16T11:00:12.343Z,94547.61
2018-07-16T11:02:42.336Z,94529.95
2018-07-16T11:05:12.279Z,94523.25
2018-07-16T11:07:42.115Z,94532.98
2018-07-16T11:10:12.241Z,94530.22
2018-07-16T11:12:41.740Z,94533.61
2018-07-16T11:15:11.502Z,94517.70
2018-07-16T11:17:41.212Z,94519.58
2018-07-16T11:20:12.098Z,94512.15
2018-07-16T11:25:11.394Z,94510.94
2018-07-16T11:27:41.654Z,94501.81
2018-07-16T11:30:11.318Z,94501.92
2018-07-16T11:32:41.250Z,94490.86
2018-07-16T11:35:11.251Z,94512.13
2018-07-16T11:37:40.890Z,94496.17
2018-07-16T11:40:10.896Z,94494.06
2018-07-16T11:42:40.703Z,94500.42
2018-07-16T11:45:10.522Z,94494.38
2018-07-16T11:47:40.214Z,94495.23
2018-07-16T11:50:09.913Z,94500.45
2018-07-16T11:52:39.597Z,94507.88
2018-07-16T11:55:09.411Z,94499.38
2018-07-16T11:57:39.153Z,94498.10
2018-07-16T12:00:08.837Z,94499.66
2018-07-16T12:02:38.962Z,94491.47
2018-07-16T12:05:08.681Z,94502.02
2018-07-16T12:07:38.629Z,94489.92
2018-07-16T12:10:08.466Z,94496.55
2018-07-16T12:12:38.552Z,94493.65
2018-07-16T12:15:10.585Z,94493.05
2018-07-16T12:17:40.867Z,94478.98
2018-07-16T12:20:10.733Z,94496.55
2018-07-16T12:22:40.562Z,94495.80
2018-07-16T12:25:10.275Z,94490.45
2018-07-16T12:27:39.917Z,94492.42
2018-07-16T12:30:09.877Z,94485.22
2018-07-16T12:32:39.547Z,94482.96
2018-07-16T12:35:09.115Z,94485.71
2018-07-16T12:37:38.805Z,94488.17
2018-07-16T12:40:08.526Z,94486.83
2018-07-16T12:42:38.822Z,94483.58
2018-07-16T12:45:09.471Z,94475.09
2018-07-16T12:47:39.796Z,94469.00
2018-07-16T12:50:09.726Z,94464.50
2018-07-16T12:52:40.195Z,94459.34
2018-07-16T12:55:13.669Z,94468.18
2018-07-16T12:57:44.136Z,94460.66
2018-07-16T13:00:14.964Z,94465.45
2018-07-16T13:02:44.744Z,94458.89
2018-07-16T13:05:14.273Z,94456.34
2018-07-16T13:07:43.820Z,94456.41
2018-07-16T13:10:13.391Z,94457.47
2018-07-16T13:12:43.189Z,94452.66
2018-07-16T13:15:12.936Z,94456.92
2018-07-16T13:17:42.921Z,94453.70
2018-07-16T13:20:12.646Z,94464.34
2018-07-16T13:22:42.538Z,94462.86
2018-07-16T13:25:12.503Z,94467.05
2018-07-16T13:27:42.343Z,94467.61
2018-07-16T13:30:11.848Z,94469.47
2018-07-16T13:32:41.785Z,94460.87
2018-07-16T13:35:11.354Z,94464.84
2018-07-16T13:37:40.917Z,94457.48
2018-07-16T13:40:12.055Z,94453.88
2018-07-16T13:42:41.955Z,94440.23
2018-07-16T13:45:12.318Z,94438.77
2018-07-16T13:47:42.070Z,94434.63
2018-07-16T13:50:11.911Z,94441.62
2018-07-16T13:52:41.642Z,94441.52
2018-07-16T13:55:11.646Z,94438.59
2018-07-16T13:57:41.519Z,94429.42
2018-07-16T14:00:11.106Z,94439.73
2018-07-16T14:02:40.631Z,94426.91
2018-07-16T14:05:10.382Z,94435.77
2018-07-16T14:07:39.942Z,94433.66
2018-07-16T14:10:09.764Z,94422.09
2018-07-16T14:12:39.746Z,94423.56
2018-07-16T14:15:09.379Z,94424.84
2018-07-16T14:17:39.261Z,94423.05
2018-07-16T14:20:08.816Z,94436.16
2018-07-16T14:22:38.559Z,94419.91
2018-07-16T14:25:08.623Z,94409.72
2018-07-16T14:27:38.488Z,94410.87
2018-07-16T14:30:08.270Z,94412.69
2018-07-16T14:32:37.891Z,94418.83
2018-07-16T14:35:07.501Z,94420.91
2018-07-16T14:37:37.090Z,94407.20
2018-07-16T14:40:07.020Z,94410.61
2018-07-16T14:42:36.669Z,94409.52
2018-07-16T14:45:06.755Z,94401.22
2018-07-16T14:47:36.513Z,94403.89
2018-07-16T14:50:06.481Z,94398.55
2018-07-16T14:52:36.340Z,94406.63
2018-07-16T14:55:06.215Z,94402.73
2018-07-16T14:57:36.198Z,94404.50
2018-07-16T15:00:06.292Z,94400.59
2018-07-16T15:02:35.863Z,94399.49
2018-07-16T15:05:05.600Z,94392.73
2018-07-16T15:07:35.065Z,94393.50
2018-07-16T15:10:04.929Z,94393.47
2018-07-16T15:12:34.702Z,94387.50
2018-07-16T15:15:04.383Z,94378.49
2018-07-16T15:17:34.179Z,94385.81
2018-07-16T15:20:04.180Z,94371.13
2018-07-16T15:22:34.188Z,94357.42
2018-07-16T15:25:04.131Z,94362.41
2018-07-16T15:27:33.826Z,94354.88
2018-07-16T15:30:03.420Z,94367.70
2018-07-16T15:32:32.917Z,94354.95
2018-07-16T15:35:02.541Z,94356.46
2018-07-16T15:37:32.795Z,94360.65
2018-07-16T15:40:02.835Z,94361.39
2018-07-16T15:42:33.007Z,94367.10
2018-07-16T15:45:03.061Z,94366.33
2018-07-16T15:47:33.039Z,94362.80
2018-07-16T15:50:03.124Z,94379.81
2018-07-16T15:52:32.988Z,94370.54
2018-07-16T15:55:02.549Z,94372.21
2018-07-16T15:57:32.351Z,94371.92
2018-07-16T16:00:02.066Z,94372.83
2018-07-16T16:02:31.617Z,94362.98
2018-07-16T16:05:01.180Z,94358.20
2018-07-16T16:07:32.373Z,94365.17
2018-07-16T16:10:03.486Z,94367.73
2018-07-16T16:12:33.106Z,94368.04
2018-07-16T16:15:02.998Z,94379.50
2018-07-16T16:17:33.190Z,94377.42
2018-07-16T16:20:02.803Z,94378.95
2018-07-16T16:22:32.588Z,94395.55
2018-07-16T16:25:02.519Z,94387.98
2018-07-16T16:27:32.203Z,94395.14
2018-07-16T16:30:01.747Z,94394.22
2018-07-16T16:32:31.332Z,94392.55
2018-07-16T16:35:01.003Z,94396.26
2018-07-16T16:37:30.718Z,94404.61
2018-07-16T16:40:00.712Z,94406.36
2018-07-16T16:42:30.658Z,94415.23
2018-07-16T16:45:00.388Z,94408.33
2018-07-16T16:47:30.052Z,94402.25
2018-07-16T16:49:59.869Z,94408.17
2018-07-16T16:52:29.531Z,94405.48
2018-07-16T16:54:59.286Z,94402.31
2018-07-16T16:57:28.942Z,94413.53
2018-07-16T16:59:58.783Z,94410.67
2018-07-16T17:02:28.487Z,94404.24
2018-07-16T17:04:58.394Z,94412.38
2018-07-16T17:07:28.261Z,94403.73
2018-07-16T17:09:58.254Z,94412.16
2018-07-16T17:12:28.042Z,94309.31
2018-07-16T17:14:58.047Z,94415.23
2018-07-16T17:17:28.326Z,94415.69
2018-07-16T17:19:58.486Z,94410.03
2018-07-16T17:22:28.798Z,94414.74
2018-07-16T17:24:58.822Z,94414.77
2018-07-16T17:27:28.538Z,94411.53
2018-07-16T17:29:58.215Z,94412.36
2018-07-16T17:32:27.789Z,94412.31
2018-07-16T17:34:57.715Z,94411.86
2018-07-16T17:37:27.368Z,94402.77
2018-07-16T17:39:57.173Z,94398.58
2018-07-16T17:42:26.834Z,94395.44
2018-07-16T17:44:56.709Z,94392.88
2018-07-16T17:47:26.456Z,94398.28
2018-07-16T17:49:56.497Z,94405.19
2018-07-16T17:52:26.239Z,94403.95
2018-07-16T17:54:55.841Z,94411.50
2018-07-16T17:57:25.720Z,94412.52
2018-07-16T17:59:55.319Z,94403.41
2018-07-16T18:02:25.287Z,94405.05
2018-07-16T18:04:55.142Z,94409.03
2018-07-16T18:07:24.972Z,94411.11
2018-07-16T18:09:54.719Z,94396.58
2018-07-16T18:12:24.778Z,94389.59
2018-07-16T18:14:54.456Z,94376.03
2018-07-16T18:17:24.134Z,94378.45
2018-07-16T18:19:53.676Z,94382.57
2018-07-16T18:22:23.506Z,94371.11
2018-07-16T18:24:53.309Z,94374.20
2018-07-16T18:27:22.980Z,94375.23
2018-07-16T18:29:52.459Z,94379.34
2018-07-16T18:32:22.091Z,94389.00
2018-07-16T18:34:52.166Z,94388.97
2018-07-16T18:37:22.054Z,94387.45
2018-07-16T18:39:51.606Z,94391.02
2018-07-16T18:42:21.659Z,94397.80
2018-07-16T18:44:51.675Z,94395.41
2018-07-16T18:47:21.823Z,94397.41
2018-07-16T18:49:51.505Z,94399.08
2018-07-16T18:52:21.231Z,94396.02
2018-07-16T18:54:50.853Z,94391.97
2018-07-16T18:57:20.493Z,94390.02
2018-07-16T18:59:50.047Z,94388.66
2018-07-16T19:02:19.678Z,94389.02
2018-07-16T19:04:49.391Z,94383.77
2018-07-16T19:07:22.036Z,94380.00
2018-07-16T19:09:52.263Z,94388.66
2018-07-16T19:12:21.986Z,94386.86
2018-07-16T19:14:51.918Z,94385.84
2018-07-16T19:17:21.779Z,94392.12
2018-07-16T19:19:51.552Z,94395.22
2018-07-16T19:22:21.227Z,94394.39
2018-07-16T19:24:51.006Z,94385.14
2018-07-16T19:27:20.557Z,94386.63
2018-07-16T19:29:51.175Z,94392.03
2018-07-16T19:32:20.745Z,94382.98
2018-07-16T19:34:50.690Z,94375.77
2018-07-16T19:37:20.360Z,94379.51
2018-07-16T19:39:50.048Z,94383.19
2018-07-16T19:42:19.821Z,94379.19
2018-07-16T19:44:49.448Z,94377.75
2018-07-16T19:47:19.014Z,94372.16
2018-07-16T19:49:48.791Z,94370.25
2018-07-16T19:52:18.689Z,94370.39
2018-07-16T19:54:48.318Z,94370.09
2018-07-16T19:57:17.899Z,94376.67
2018-07-16T19:59:47.447Z,94379.44
2018-07-16T20:02:17.499Z,94376.36
2018-07-16T20:04:47.191Z,94375.41
2018-07-16T20:07:16.923Z,94381.88
2018-07-16T20:09:47.361Z,94375.69
2018-07-16T20:12:29.499Z,94376.58
2018-07-16T20:14:59.946Z,94378.78
2018-07-16T20:17:29.775Z,94367.47
2018-07-16T20:20:00.094Z,94361.36
2018-07-16T20:22:30.219Z,94363.57
2018-07-16T20:25:00.085Z,94360.69
2018-07-16T20:27:29.638Z,94351.34
2018-07-16T20:29:59.303Z,94352.67
2018-07-16T20:32:29.348Z,94351.33
2018-07-16T20:34:59.123Z,94351.55
2018-07-16T20:37:29.070Z,94345.56
2018-07-16T20:39:58.883Z,94353.27
2018-07-16T20:42:28.941Z,94350.41
2018-07-16T20:44:58.715Z,94345.84
2018-07-16T20:47:28.473Z,94339.19
2018-07-16T20:49:58.367Z,94333.70
2018-07-16T20:52:27.861Z,94320.56
2018-07-16T20:54:57.618Z,94324.72
2018-07-16T20:57:27.106Z,94325.88
2018-07-16T20:59:56.607Z,94330.31
2018-07-16T21:02:26.474Z,94331.41
2018-07-16T21:04:56.248Z,94320.41
2018-07-16T21:07:25.919Z,94326.69
2018-07-16T21:09:55.592Z,94327.20
2018-07-16T21:12:25.570Z,94322.78
2018-07-16T21:14:55.353Z,94331.43
2018-07-16T21:17:25.279Z,94337.34
2018-07-16T21:19:55.000Z,94329.69
2018-07-16T21:22:24.822Z,94323.76
2018-07-16T21:24:54.491Z,94325.32
2018-07-16T21:27:24.019Z,94324.19
2018-07-16T21:29:53.787Z,94326.12
2018-07-16T21:32:23.921Z,94326.28
2018-07-16T21:34:53.795Z,94323.41
2018-07-16T21:37:23.699Z,94326.61
2018-07-16T21:39:53.522Z,94325.28
2018-07-16T21:42:23.330Z,94330.27
2018-07-16T21:44:52.890Z,94319.70
2018-07-16T21:47:22.691Z,94312.83
2018-07-16T21:49:52.357Z,94316.81
2018-07-16T21:52:21.995Z,94315.69
2018-07-16T21:54:51.643Z,94311.09
2018-07-16T21:57:21.275Z,94319.66
2018-07-16T21:59:50.811Z,94321.65
2018-07-16T22:02:20.907Z,94322.31
2018-07-16T22:04:50.663Z,94317.78
2018-07-16T22:07:20.746Z,94328.05
2018-07-16T22:09:50.322Z,94325.28
2018-07-16T22:12:19.968Z,94331.02
2018-07-16T22:14:49.521Z,94324.23
2018-07-16T22:17:19.249Z,94327.05
2018-07-16T22:19:48.860Z,94320.98
2018-07-16T22:22:18.588Z,94324.42
2018-07-16T22:24:48.107Z,94330.69
2018-07-16T22:27:17.751Z,94330.16
2018-07-16T22:29:47.393Z,94330.87
2018-07-16T22:32:16.914Z,94332.81
2018-07-16T22:34:46.678Z,94325.90
2018-07-16T22:37:16.552Z,94325.45
2018-07-16T22:39:46.161Z,94323.19
2018-07-16T22:42:15.882Z,94322.01
2018-07-16T22:44:45.654Z,94322.10
2018-07-16T22:47:15.452Z,94325.50
2018-07-16T22:49:45.314Z,94319.08
2018-07-16T22:52:15.286Z,94321.28
2018-07-16T22:54:44.818Z,94315.20
2018-07-16T22:57:14.389Z,94311.70
2018-07-16T22:59:44.018Z,94316.16
2018-07-16T23:02:13.996Z,94319.89
2018-07-16T23:04:43.586Z,94302.34
2018-07-16T23:07:13.347Z,94303.48
2018-07-16T23:09:43.143Z,94309.09
2018-07-16T23:12:12.999Z,94304.61
2018-07-16T23:14:43.006Z,94310.81
2018-07-16T23:17:12.810Z,94314.53
2018-07-16T23:19:42.638Z,94305.47
2018-07-16T23:22:12.292Z,94303.44
2018-07-16T23:24:41.953Z,94301.98
2018-07-16T23:27:11.523Z,94292.94
2018-07-16T23:29:41.170Z,94290.34
2018-07-16T23:32:11.031Z,94293.31
2018-07-16T23:34:40.834Z,94288.58
2018-07-16T23:37:10.680Z,94286.30
2018-07-16T23:39:40.373Z,94289.72
2018-07-16T23:42:10.043Z,94297.14
2018-07-16T23:44:39.878Z,94299.87
2018-07-16T23:47:09.424Z,94297.36
2018-07-16T23:49:39.138Z,94297.67
2018-07-16T23:52:08.760Z,94300.48
2018-07-16T23:54:38.522Z,94300.63
2018-07-16T23:57:08.139Z,94289.88
2018-07-16T23:59:37.805Z,94281.98
